West Mifflin, Pennsylvania
Current Conditions -  °F | °C
As of 5:08 AM on Friday 28 Nov 2014 (Local Time) from KAGC Reporting Station
Light Snow Light Snow  
Wind Chill: 16°   Ceiling: 1700
Heat Index: 26°   Visibility: 1.7mi
Dew Point: 20°   Wind: 10mph
Humidity: 78%   Direction: 330°NNW
Pressure: 30.25"   Gusts: NA
Location:  40.35°N, 79.92°W
Report Text: KAGC 281008Z 33009KT 1 3/4SM -SN FEW008 BKN017 OVC025 M03/M07 A3025 RMK AO2 P0000 T10331067
Loading
Personal Weather Stations






























Interactive Weather Map New forecast layout! Learn more

10-Day Weather Forecast

Advertisements
Track Severe Weather on mobile